Terminal Aerodrome Forecast
Issued by NWS

Home | Current Version | Previous Version | Text Only | Print | Product List | Glossary On
Versions: 1 2 3 4 5 6 7 8 9 10 11 12 13 14 15 16 17 18 19 20 21 22 23 24 25 26 27
000
FTUS42 KGSP 221001 AAE
TAFGMU
TAF AMD
KGMU 221001Z 2210/2306 VRB04KT 3SM -SHRA BR VCTS SCT002 OVC015CB
      TEMPO 2210/2213 1/2SM SHRA FG OVC002
     FM221300 07006KT 4SM -SHRA BR VCTS OVC007CB
     FM221600 09006KT 4SM -SHRA BR OVC008
     FM221800 07006KT 4SM SHRA BR OVC003 PROB30 2219/2224 1SM TSRA
      OVC003CB
     FM230000 19012G20KT 4SM TSRA BR OVC003CB=

USA.gov is the U.S. government's official web portal to all federal, state and local government web resources and services.